Time;durP1;ratioP1;P1;durP2;ratioP2;P2;SDS_P1;SDS_P2;PMS_P1;PMS_P2;Temp;Humidity;BMP_temperature;BMP_pressure;BME280_temperature;BME280_humidity;BME280_pressure;Samples;Min_cycle;Max_cycle;Signal;HPM_P1;HPM_P2
2022/12/24 00:02:06;;;;;;;48.88;31.83;;;;;;;8.25;100.00;99822.78;5073152;28;20032;-69
2022/12/24 00:04:31;;;;;;;45.63;31.95;;;;;;;8.25;100.00;99812.09;5072906;28;20027;-69
2022/12/24 00:06:57;;;;;;;46.78;32.42;;;;;;;8.18;100.00;99815.38;5073211;28;20033;-69
2022/12/24 00:09:22;;;;;;;51.03;33.30;;;;;;;8.32;100.00;99839.16;5072994;28;20119;-71
2022/12/24 00:11:47;;;;;;;48.95;31.20;;;;;;;8.33;100.00;99833.66;5071610;28;20032;-70
2022/12/24 00:14:13;;;;;;;51.63;33.15;;;;;;;8.28;100.00;99824.34;5072536;28;20039;-70
2022/12/24 00:16:38;;;;;;;45.88;32.10;;;;;;;8.34;100.00;99845.19;5072690;28;20377;-71
2022/12/24 00:19:04;;;;;;;42.80;29.52;;;;;;;8.36;100.00;99848.56;5072628;28;20027;-70
2022/12/24 00:21:29;;;;;;;44.45;30.30;;;;;;;8.35;100.00;99841.56;5072302;28;20035;-70
2022/12/24 00:23:54;;;;;;;45.08;29.98;;;;;;;8.05;100.00;99790.72;5072565;28;20013;-70
2022/12/24 00:26:20;;;;;;;41.47;28.67;;;;;;;8.41;100.00;99854.34;5072563;28;20115;-70
2022/12/24 00:28:45;;;;;;;43.08;29.23;;;;;;;8.40;100.00;99844.66;5072283;28;20051;-70
2022/12/24 00:31:14;;;;;;;44.10;29.40;;;;;;;8.43;100.00;99834.56;5072378;28;20095;-69
2022/12/24 00:33:40;;;;;;;45.38;29.50;;;;;;;8.42;100.00;99826.69;5072265;28;20025;-70
2022/12/24 00:36:06;;;;;;;44.75;29.70;;;;;;;8.42;100.00;99813.31;5072543;28;20032;-70
2022/12/24 00:38:31;;;;;;;45.15;28.80;;;;;;;8.55;100.00;99841.50;5071270;28;20107;-70
2022/12/24 00:41:00;;;;;;;44.50;29.35;;;;;;;8.63;100.00;99846.16;5070777;28;20144;-69
2022/12/24 00:43:26;;;;;;;43.38;28.38;;;;;;;8.61;100.00;99834.78;5072087;28;20016;-69
2022/12/24 00:45:51;;;;;;;41.13;29.05;;;;;;;8.62;100.00;99823.09;5072628;28;20427;-73
2022/12/24 00:48:17;;;;;;;42.50;29.48;;;;;;;8.63;100.00;99822.97;5073108;28;20045;-74
2022/12/24 00:50:42;;;;;;;39.78;27.67;;;;;;;8.66;100.00;99821.84;5073097;28;20020;-74
2022/12/24 00:53:08;;;;;;;42.30;28.27;;;;;;;8.60;100.00;99819.72;5073036;28;20029;-74
2022/12/24 00:55:33;;;;;;;38.88;27.63;;;;;;;8.66;100.00;99833.41;5072048;28;20051;-70
2022/12/24 00:57:58;;;;;;;40.90;27.90;;;;;;;8.69;100.00;99841.16;5071966;28;20484;-70
2022/12/24 01:00:24;;;;;;;37.58;27.35;;;;;;;8.61;100.00;99838.28;5070520;28;20086;-68
2022/12/24 01:02:49;;;;;;;40.08;27.88;;;;;;;8.55;100.00;99829.97;5072043;28;20096;-70
2022/12/24 01:05:16;;;;;;;37.92;26.58;;;;;;;8.67;100.00;99847.59;5071519;28;20293;-69
2022/12/24 01:07:43;;;;;;;41.55;27.15;;;;;;;8.66;100.00;99852.13;5071738;28;20470;-70
2022/12/24 01:10:11;;;;;;;39.30;25.83;;;;;;;8.68;100.00;99855.47;5071624;28;20043;-70
2022/12/24 01:12:36;;;;;;;40.35;27.02;;;;;;;8.66;100.00;99830.72;5071465;28;20580;-69
2022/12/24 01:15:03;;;;;;;39.42;26.80;;;;;;;8.57;100.00;99814.63;5070272;28;20027;-69
2022/12/24 01:17:31;;;;;;;37.90;26.98;;;;;;;8.53;100.00;99805.19;5071252;28;20385;-69
2022/12/24 01:19:57;;;;;;;36.55;26.05;;;;;;;8.68;100.00;99828.75;5071350;28;20032;-69
2022/12/24 01:22:22;;;;;;;44.45;28.00;;;;;;;8.69;100.00;99824.25;5071514;28;20390;-70
2022/12/24 01:24:48;;;;;;;40.17;27.00;;;;;;;8.68;100.00;99828.75;5071916;28;20029;-74
2022/12/24 01:27:13;;;;;;;39.10;28.05;;;;;;;8.69;100.00;99818.91;5071939;28;20090;-74
2022/12/24 01:29:38;;;;;;;41.17;27.45;;;;;;;8.71;100.00;99825.81;5071981;28;20031;-73
2022/12/24 01:32:04;;;;;;;38.33;25.92;;;;;;;8.58;100.00;99824.38;5072144;28;20020;-74
2022/12/24 01:34:29;;;;;;;39.45;26.30;;;;;;;8.72;100.00;99861.41;5071772;28;20083;-74
2022/12/24 01:36:55;;;;;;;39.85;27.05;;;;;;;8.74;100.00;99876.34;5072248;28;20032;-72
2022/12/24 01:39:20;;;;;;;38.25;25.02;;;;;;;8.73;100.00;99866.63;5072090;28;20028;-73
2022/12/24 01:44:33;;;;;;;36.85;24.60;;;;;;;8.65;100.00;99836.22;5071432;28;20118;-69
2022/12/24 01:47:16;;;;;;;38.42;24.95;;;;;;;8.70;100.00;99831.28;5070719;28;20048;-69
2022/12/24 01:49:47;;;;;;;36.83;25.13;;;;;;;8.67;100.00;99829.75;5070729;28;20028;-69
2022/12/24 01:52:20;;;;;;;33.17;24.00;;;;;;;8.75;100.00;99834.41;5070918;28;20500;-69
2022/12/24 01:54:57;;;;;;;36.35;23.50;;;;;;;8.82;100.00;99838.22;5070966;28;20668;-69
2022/12/24 01:57:31;;;;;;;34.38;24.80;;;;;;;8.82;100.00;99825.72;5069430;28;20102;-68
2022/12/24 02:00:00;;;;;;;37.92;23.33;;;;;;;8.73;100.00;99802.47;5070715;28;20021;-68
2022/12/24 02:02:27;;;;;;;36.53;23.63;;;;;;;8.87;100.00;99811.94;5070610;28;20492;-69
2022/12/24 02:05:00;;;;;;;35.22;24.45;;;;;;;8.85;100.00;99809.41;5071571;28;20060;-74
2022/12/24 02:07:26;;;;;;;36.67;23.30;;;;;;;8.69;100.00;99771.66;5071782;28;20032;-73
2022/12/24 02:09:58;;;;;;;33.30;21.92;;;;;;;8.86;100.00;99804.88;5071328;28;20040;-74
2022/12/24 02:12:26;;;;;;;35.65;23.38;;;;;;;8.87;100.00;99793.22;5071288;28;20048;-73
2022/12/24 02:14:52;;;;;;;31.77;21.60;;;;;;;8.86;100.00;99805.75;5071359;28;20032;-73
2022/12/24 02:17:18;;;;;;;40.65;23.52;;;;;;;8.90;100.00;99806.34;5070985;28;20085;-72
2022/12/24 02:20:17;;;;;;;30.08;21.33;;;;;;;8.85;100.00;99795.19;5069909;28;20131;-73
2022/12/24 02:23:14;;;;;;;35.55;22.73;;;;;;;8.76;100.00;99785.31;5070975;28;20023;-73
2022/12/24 02:25:48;;;;;;;33.50;21.85;;;;;;;8.92;100.00;99807.88;5071271;28;20029;-73
2022/12/24 02:28:42;;;;;;;;;;;;;;;8.93;100.00;99824.75;5071626;28;20052;-73
2022/12/24 02:31:21;;;;;;;33.92;20.33;;;;;;;8.80;100.00;99776.03;5053464;28;20434;-73
2022/12/24 02:34:17;;;;;;;31.42;20.83;;;;;;;8.96;100.00;99797.72;5070631;28;20369;-70
2022/12/24 02:37:05;;;;;;;25.52;18.65;;;;;;;8.90;100.00;99783.09;5070243;28;20033;-70
2022/12/24 02:39:42;;;;;;;30.13;19.17;;;;;;;8.96;100.00;99800.41;5069083;28;20484;-69
2022/12/24 02:42:10;;;;;;;28.98;19.15;;;;;;;8.88;100.00;99778.88;5070195;28;20028;-69
2022/12/24 02:44:43;;;;;;;29.52;18.48;;;;;;;8.94;100.00;99783.66;5070395;28;20024;-69
2022/12/24 02:47:11;;;;;;;28.40;18.58;;;;;;;8.99;100.00;99797.47;5069889;28;20079;-68
2022/12/24 02:49:37;;;;;;;27.25;18.55;;;;;;;9.01;100.00;99806.22;5070217;28;20535;-69
2022/12/24 02:52:03;;;;;;;29.17;17.65;;;;;;;8.94;100.00;99797.03;5070172;28;20060;-69
2022/12/24 02:54:29;;;;;;;28.25;17.70;;;;;;;9.05;100.00;99818.31;5068897;28;20060;-70
2022/12/24 02:57:05;;;;;;;26.92;17.67;;;;;;;9.06;100.00;99817.31;5069884;28;20086;-70
2022/12/24 03:00:00;;;;;;;24.20;17.52;;;;;;;9.03;100.00;99806.94;5070519;28;20033;-69
2022/12/24 03:02:53;;;;;;;25.63;17.40;;;;;;;9.07;100.00;99829.75;5076527;28;20021;-68
2022/12/24 03:05:39;;;;;;;26.00;17.70;;;;;;;9.07;100.00;99814.50;5076479;28;20035;-69
2022/12/24 03:08:23;;;;;;;23.48;17.15;;;;;;;9.08;100.00;99834.09;5076493;28;20029;-69
2022/12/24 03:10:59;;;;;;;29.77;18.15;;;;;;;9.09;100.00;99854.50;5077013;28;20024;-69
2022/12/24 03:13:26;;;;;;;23.55;15.68;;;;;;;9.11;100.00;99857.91;5076748;28;20101;-68
2022/12/24 03:15:52;;;;;;;30.45;16.77;;;;;;;9.12;100.00;99851.56;5076880;28;20028;-70
2022/12/24 03:18:22;;;;;;;25.42;16.27;;;;;;;9.20;100.00;99851.72;5077003;28;20078;-73
2022/12/24 03:20:56;;;;;;;25.13;15.98;;;;;;;9.22;100.00;99839.03;5077069;28;20033;-73
2022/12/24 03:23:22;;;;;;;27.92;16.25;;;;;;;9.15;100.00;99800.44;5076775;28;20021;-72
2022/12/24 03:25:48;;;;;;;27.92;16.55;;;;;;;9.23;100.00;99827.38;5077102;28;20535;-72
2022/12/24 03:28:16;;;;;;;26.75;16.65;;;;;;;9.21;100.00;99821.31;5077060;28;20496;-73
2022/12/24 03:30:44;;;;;;;30.17;16.98;;;;;;;9.27;100.00;99821.63;5076721;28;20035;-72
2022/12/24 03:33:10;;;;;;;25.08;16.73;;;;;;;9.21;100.00;99816.81;5075719;28;20036;-73
2022/12/24 03:35:35;;;;;;;26.55;16.92;;;;;;;9.25;100.00;99822.72;5077123;28;20094;-72
2022/12/24 03:38:01;;;;;;;24.73;16.20;;;;;;;9.22;100.00;99813.16;5077022;28;20025;-74
2022/12/24 03:40:26;;;;;;;29.58;15.93;;;;;;;9.28;100.00;99809.06;5077243;28;20032;-74
2022/12/24 03:42:51;;;;;;;30.88;15.02;;;;;;;9.27;100.00;99800.22;5077043;28;20103;-72
2022/12/24 03:45:17;;;;;;;24.58;16.92;;;;;;;8.93;100.00;99737.34;5077042;28;20024;-72
2022/12/24 03:47:43;;;;;;;26.10;15.75;;;;;;;9.32;100.00;99812.31;5076881;28;20127;-73
2022/12/24 03:50:08;;;;;;;25.15;15.55;;;;;;;9.13;100.00;99765.81;5075674;28;20048;-73
2022/12/24 03:52:34;;;;;;;26.25;15.75;;;;;;;9.32;100.00;99795.28;5076897;28;20415;-73
2022/12/24 03:54:59;;;;;;;24.70;15.27;;;;;;;9.32;100.00;99810.47;5077119;28;20042;-72
2022/12/24 03:57:25;;;;;;;23.02;15.45;;;;;;;9.32;100.00;99816.69;5075339;28;20044;-74
2022/12/24 03:59:50;;;;;;;28.00;18.20;;;;;;;9.30;100.00;99812.47;5070367;28;20043;-73
2022/12/24 04:02:16;;;;;;;23.67;15.15;;;;;;;9.50;100.00;99813.31;5068422;28;20488;-74
2022/12/24 04:04:41;;;;;;;27.20;15.38;;;;;;;9.49;100.00;99807.13;5065356;28;20474;-73
2022/12/24 04:07:06;;;;;;;22.60;14.90;;;;;;;9.47;100.00;99817.13;5066348;28;20065;-73
2022/12/24 04:09:32;;;;;;;25.52;15.32;;;;;;;9.42;100.00;99821.19;5076007;28;21856;-74
2022/12/24 04:11:57;;;;;;;23.50;15.68;;;;;;;9.45;100.00;99828.97;5072260;28;20511;-73
2022/12/24 04:14:23;;;;;;;24.85;14.07;;;;;;;9.53;100.00;99835.28;5073199;28;20032;-74
2022/12/24 04:16:48;;;;;;;21.98;14.80;;;;;;;9.47;100.00;99827.81;5073070;28;20028;-74
2022/12/24 04:19:14;;;;;;;23.45;14.70;;;;;;;9.47;100.00;99822.47;5072342;28;20162;-74
2022/12/24 04:21:39;;;;;;;21.00;14.75;;;;;;;9.42;100.00;99821.19;5067045;28;20088;-72
2022/12/24 04:24:05;;;;;;;22.02;14.40;;;;;;;9.44;100.00;99830.78;5074354;28;20029;-73
2022/12/24 04:26:30;;;;;;;20.58;13.95;;;;;;;9.13;100.00;99787.22;5071145;28;20029;-74
2022/12/24 04:28:56;;;;;;;25.92;13.88;;;;;;;9.39;100.00;99824.16;5072742;28;20036;-73
2022/12/24 04:31:22;;;;;;;22.70;14.20;;;;;;;9.15;100.00;99808.47;5072404;28;20032;-73
2022/12/24 04:33:50;;;;;;;21.10;13.35;;;;;;;9.35;100.00;99836.94;5072230;28;20036;-72
2022/12/24 04:36:17;;;;;;;19.83;13.23;;;;;;;9.40;100.00;99849.91;5071005;28;20137;-73
2022/12/24 04:38:43;;;;;;;26.13;14.55;;;;;;;9.36;100.00;99840.47;5072321;28;20027;-73
2022/12/24 04:41:13;;;;;;;20.55;13.07;;;;;;;9.18;100.00;99805.53;5072334;28;20032;-73
2022/12/24 04:43:39;;;;;;;22.85;13.38;;;;;;;9.26;100.00;99832.44;5071994;28;20093;-74
2022/12/24 04:46:10;;;;;;;20.98;13.38;;;;;;;9.39;100.00;99851.78;5071743;28;20132;-74
2022/12/24 04:48:36;;;;;;;19.25;13.23;;;;;;;9.30;100.00;99831.19;5072421;28;20055;-74
2022/12/24 04:51:03;;;;;;;20.02;13.35;;;;;;;9.33;100.00;99842.44;5070673;28;20029;-74
2022/12/24 04:53:29;;;;;;;19.05;12.38;;;;;;;9.25;100.00;99831.59;5072536;28;20028;-72
2022/12/24 04:55:55;;;;;;;21.33;13.50;;;;;;;9.41;100.00;99863.16;5072470;28;20082;-74
2022/12/24 04:58:20;;;;;;;20.25;13.23;;;;;;;9.44;100.00;99846.84;5072512;28;20036;-73
2022/12/24 05:00:46;;;;;;;20.80;12.80;;;;;;;9.51;100.00;99864.03;5070220;28;20117;-74
2022/12/24 05:03:11;;;;;;;21.55;14.48;;;;;;;9.68;100.00;99870.53;5071701;28;20377;-74
2022/12/24 05:05:36;;;;;;;20.60;12.77;;;;;;;9.56;100.00;99836.84;5071304;28;20103;-73
2022/12/24 05:08:02;;;;;;;22.77;13.32;;;;;;;9.83;100.00;99859.25;5071942;28;20155;-73
2022/12/24 05:10:28;;;;;;;20.50;11.45;;;;;;;9.59;100.00;99842.78;5070544;28;20028;-74
2022/12/24 05:12:53;;;;;;;21.02;12.57;;;;;;;9.50;100.00;99824.88;5071273;28;20020;-73
2022/12/24 05:15:19;;;;;;;18.02;11.88;;;;;;;9.57;100.00;99849.25;5071602;28;20103;-74
2022/12/24 05:17:44;;;;;;;18.90;11.75;;;;;;;9.63;100.00;99864.75;5071961;28;20023;-74
2022/12/24 05:20:10;;;;;;;19.17;12.05;;;;;;;9.67;100.00;99875.03;5071939;28;20137;-72
2022/12/24 05:28:04;;;;;;;19.65;12.32;;;;;;;9.52;100.00;99871.09;5071649;28;20101;-73
2022/12/24 05:30:29;;;;;;;20.48;12.02;;;;;;;9.55;100.00;99870.81;5071940;28;20099;-73
2022/12/24 05:32:55;;;;;;;21.00;12.65;;;;;;;9.57;100.00;99874.19;5072117;28;20024;-73
2022/12/24 05:35:20;;;;;;;20.40;12.07;;;;;;;9.54;100.00;99877.13;5072100;28;20024;-74
2022/12/24 05:37:46;;;;;;;18.13;11.43;;;;;;;9.49;100.00;99874.03;5072006;28;20037;-74
2022/12/24 05:40:11;;;;;;;22.08;12.13;;;;;;;9.50;100.00;99877.53;5071900;28;20020;-73
2022/12/24 05:42:37;;;;;;;19.38;11.48;;;;;;;9.28;100.00;99842.03;5071430;28;20395;-72
2022/12/24 05:45:03;;;;;;;20.63;12.18;;;;;;;9.47;100.00;99877.81;5071453;28;20016;-73
2022/12/24 05:47:28;;;;;;;20.08;11.68;;;;;;;9.54;100.00;99882.47;5071171;28;20048;-73
2022/12/24 05:49:54;;;;;;;18.95;11.15;;;;;;;9.51;100.00;99872.06;5071661;28;20392;-73
2022/12/24 05:52:19;;;;;;;17.13;11.40;;;;;;;9.49;100.00;99879.41;5071382;28;20029;-73
2022/12/24 05:54:44;;;;;;;18.13;11.70;;;;;;;9.55;100.00;99880.66;5071309;28;20102;-73
2022/12/24 05:57:10;;;;;;;16.92;11.23;;;;;;;9.41;100.00;99855.13;5070101;28;20029;-72
2022/12/24 05:59:35;;;;;;;19.95;11.18;;;;;;;9.43;100.00;99855.84;5071441;28;20485;-74
2022/12/24 06:02:01;;;;;;;19.42;11.77;;;;;;;9.58;100.00;99878.56;5070613;28;20031;-73
2022/12/24 06:04:26;;;;;;;18.25;11.15;;;;;;;9.54;100.00;99876.31;5071198;28;20127;-73
2022/12/24 06:06:51;;;;;;;19.63;11.40;;;;;;;9.47;100.00;99884.03;5071042;28;20029;-74
2022/12/24 06:09:17;;;;;;;17.88;11.13;;;;;;;9.46;100.00;99884.16;5070794;28;20051;-74
2022/12/24 06:11:42;;;;;;;17.52;10.57;;;;;;;9.51;100.00;99877.41;5071089;28;20119;-74
2022/12/24 06:14:08;;;;;;;17.13;10.45;;;;;;;9.47;100.00;99889.38;5066732;28;20081;-74
2022/12/24 06:16:33;;;;;;;19.17;11.70;;;;;;;9.50;100.00;99882.91;5069929;28;20051;-73
2022/12/24 06:18:59;;;;;;;17.75;10.23;;;;;;;9.41;100.00;99873.88;5070968;28;20027;-72
2022/12/24 06:21:24;;;;;;;16.33;11.07;;;;;;;9.29;100.00;99875.00;5070809;28;20021;-73
2022/12/24 06:23:50;;;;;;;17.05;10.15;;;;;;;9.45;100.00;99903.91;5070677;28;20027;-73
2022/12/24 06:26:18;;;;;;;19.00;10.32;;;;;;;9.48;100.00;99904.44;5068440;28;20055;-74
2022/12/24 06:28:44;;;;;;;18.15;10.65;;;;;;;9.57;100.00;99917.00;5070277;28;20086;-74
2022/12/24 06:31:13;;;;;;;18.85;11.48;;;;;;;9.46;100.00;99894.88;5070800;28;20485;-74
2022/12/24 06:33:39;;;;;;;17.85;11.20;;;;;;;9.50;100.00;99898.97;5070856;28;20036;-74
2022/12/24 06:36:09;;;;;;;18.83;11.07;;;;;;;9.57;100.00;99903.63;5070612;28;20081;-74
2022/12/24 06:38:34;;;;;;;16.30;10.55;;;;;;;9.50;100.00;99912.34;5070747;28;20574;-74
2022/12/24 06:41:05;;;;;;;16.70;11.55;;;;;;;9.45;100.00;99904.75;5070940;28;20028;-74
2022/12/24 06:43:30;;;;;;;20.40;10.88;;;;;;;9.41;100.00;99897.97;5070896;28;20103;-75
2022/12/24 06:45:56;;;;;;;18.95;11.02;;;;;;;9.48;100.00;99899.09;5070680;28;20154;-74
2022/12/24 06:48:21;;;;;;;17.92;10.15;;;;;;;9.46;100.00;99901.09;5070835;28;20260;-74
2022/12/24 06:50:47;;;;;;;18.63;10.82;;;;;;;9.48;100.00;99912.47;5070645;28;20039;-74
2022/12/24 06:53:12;;;;;;;17.10;10.38;;;;;;;9.31;100.00;99896.28;5070644;28;20056;-74
2022/12/24 06:55:38;;;;;;;16.65;10.02;;;;;;;9.46;100.00;99932.34;5070841;28;20067;-74
2022/12/24 06:58:04;;;;;;;15.52;10.13;;;;;;;9.38;100.00;99916.97;5070739;28;20068;-74
2022/12/24 07:00:29;;;;;;;14.93;9.82;;;;;;;9.46;100.00;99917.16;5070620;28;20469;-74
2022/12/24 07:02:55;;;;;;;16.55;9.35;;;;;;;9.55;100.00;99932.38;5070822;28;20427;-73
2022/12/24 07:05:20;;;;;;;16.58;9.70;;;;;;;9.16;100.00;99872.53;5070799;28;20036;-74
2022/12/24 07:07:46;;;;;;;19.08;10.90;;;;;;;9.32;100.00;99929.06;5070535;28;20027;-72
2022/12/24 07:10:14;;;;;;;16.15;10.23;;;;;;;9.38;100.00;99930.34;5070644;28;20100;-74
2022/12/24 07:12:39;;;;;;;14.55;9.65;;;;;;;9.41;100.00;99940.78;5068988;28;20024;-73
2022/12/24 07:15:05;;;;;;;14.68;9.02;;;;;;;9.37;100.00;99952.75;5070986;28;20054;-73
2022/12/24 07:17:31;;;;;;;16.90;9.48;;;;;;;9.43;100.00;99938.81;5070672;28;20120;-73
2022/12/24 07:19:56;;;;;;;13.10;9.30;;;;;;;9.44;100.00;99961.91;5070560;28;20165;-74
2022/12/24 07:22:22;;;;;;;17.35;10.43;;;;;;;9.52;100.00;99963.94;5070377;28;20031;-74
2022/12/24 07:24:47;;;;;;;20.77;10.43;;;;;;;9.36;100.00;99942.19;5070400;28;20017;-74
2022/12/24 07:27:13;;;;;;;15.93;10.07;;;;;;;9.48;100.00;99963.34;5070314;28;20029;-75
2022/12/24 07:29:40;;;;;;;16.25;10.55;;;;;;;9.35;100.00;99941.31;5070423;28;20029;-75
2022/12/24 07:32:05;;;;;;;17.02;10.50;;;;;;;9.23;100.00;99926.38;5070412;28;20494;-74
2022/12/24 07:34:31;;;;;;;16.63;10.10;;;;;;;9.45;100.00;99971.66;5070153;28;20081;-73
2022/12/24 07:36:56;;;;;;;15.13;9.90;;;;;;;9.22;100.00;99943.38;5070103;28;20136;-75
2022/12/24 07:39:22;;;;;;;15.45;10.80;;;;;;;9.43;100.00;99978.97;5070369;28;20059;-75
2022/12/24 07:41:49;;;;;;;17.25;10.93;;;;;;;9.35;100.00;99961.91;5070184;28;20060;-74
2022/12/24 07:44:15;;;;;;;15.68;10.05;;;;;;;9.44;100.00;99974.47;5070164;28;20033;-74
2022/12/24 07:46:41;;;;;;;12.63;8.90;;;;;;;9.38;100.00;99964.31;5068608;28;20060;-74
2022/12/24 07:49:06;;;;;;;15.70;10.55;;;;;;;9.42;100.00;99977.28;5072481;28;20029;-73
2022/12/24 07:51:32;;;;;;;14.95;9.27;;;;;;;9.38;100.00;99957.09;5073142;28;20024;-74
2022/12/24 07:53:57;;;;;;;15.95;9.77;;;;;;;9.45;100.00;99987.72;5073007;28;20028;-75
2022/12/24 07:56:23;;;;;;;15.88;9.25;;;;;;;9.18;100.00;99939.28;5073282;28;20040;-75
2022/12/24 07:58:50;;;;;;;13.65;9.32;;;;;;;9.52;100.00;99988.88;5073895;28;20040;-75
2022/12/24 08:01:15;;;;;;;13.77;9.02;;;;;;;9.57;100.00;99985.78;5073658;28;20024;-76
2022/12/24 08:03:41;;;;;;;16.17;9.90;;;;;;;9.60;100.00;99978.31;5073362;28;20523;-74
2022/12/24 08:06:06;;;;;;;15.90;10.38;;;;;;;9.55;100.00;99971.69;5073591;28;20019;-74
2022/12/24 08:08:32;;;;;;;18.25;9.75;;;;;;;9.76;100.00;99978.63;5073364;28;20046;-73
2022/12/24 08:11:02;;;;;;;16.85;9.20;;;;;;;9.87;100.00;99983.03;5073263;28;20039;-74
2022/12/24 08:13:27;;;;;;;15.77;8.82;;;;;;;9.90;100.00;99985.44;5073131;28;20028;-74
2022/12/24 08:15:53;;;;;;;15.50;8.57;;;;;;;10.04;100.00;99993.06;5073353;28;20381;-74
2022/12/24 08:18:19;;;;;;;18.40;9.40;;;;;;;9.90;100.00;99996.97;5073259;28;20021;-74
2022/12/24 08:20:44;;;;;;;17.08;9.68;;;;;;;10.03;100.00;100002.94;5073210;28;20377;-74
2022/12/24 08:23:10;;;;;;;15.23;8.23;;;;;;;10.25;100.00;100012.59;5073125;28;20547;-74
2022/12/24 08:25:36;;;;;;;13.77;7.82;;;;;;;10.27;100.00;100011.47;5073212;28;20032;-74
2022/12/24 08:28:02;;;;;;;15.15;8.50;;;;;;;10.27;100.00;100016.81;5073163;28;20115;-74
2022/12/24 08:30:27;;;;;;;11.70;7.95;;;;;;;10.38;100.00;100018.53;5073014;28;20028;-74
2022/12/24 08:32:53;;;;;;;14.38;8.48;;;;;;;10.35;100.00;100024.16;5072994;28;20035;-74
2022/12/24 08:35:19;;;;;;;14.00;8.48;;;;;;;10.38;100.00;100030.06;5073048;28;20025;-74
2022/12/24 08:37:44;;;;;;;13.88;8.68;;;;;;;10.19;100.00;100008.63;5073009;28;20531;-74
2022/12/24 08:40:10;;;;;;;13.43;8.05;;;;;;;10.27;100.00;100030.22;5072080;28;20495;-74
2022/12/24 08:42:36;;;;;;;14.90;8.75;;;;;;;10.17;100.00;100007.94;5070791;28;20043;-73
2022/12/24 08:45:01;;;;;;;12.27;7.78;;;;;;;10.34;100.00;100026.00;5072681;28;20096;-75
2022/12/24 08:47:27;;;;;;;12.65;8.57;;;;;;;10.48;100.00;100041.66;5071909;28;20044;-74
2022/12/24 08:49:52;;;;;;;14.02;8.32;;;;;;;10.29;100.00;100014.00;5072448;28;20026;-74
2022/12/24 08:52:18;;;;;;;13.52;8.25;;;;;;;10.48;100.00;100055.06;5070521;28;20019;-74
2022/12/24 08:54:43;;;;;;;14.80;9.10;;;;;;;10.61;100.00;100060.16;5070612;28;20056;-74
2022/12/24 08:57:08;;;;;;;15.57;8.98;;;;;;;10.56;100.00;100068.63;5070323;28;20070;-74
2022/12/24 08:59:34;;;;;;;19.17;12.93;;;;;;;10.53;100.00;100074.25;5067360;28;20035;-69
2022/12/24 09:02:00;;;;;;;18.95;10.30;;;;;;;10.59;100.00;100088.94;5067698;28;20040;-70
2022/12/24 09:04:25;;;;;;;16.95;9.95;;;;;;;10.54;100.00;100075.94;5068869;28;20043;-69
2022/12/24 09:06:51;;;;;;;15.73;9.32;;;;;;;10.63;100.00;100098.38;5068096;28;20465;-70
2022/12/24 09:09:16;;;;;;;12.57;8.40;;;;;;;10.65;100.00;100101.78;5068994;28;20362;-70
2022/12/24 09:11:42;;;;;;;18.02;11.80;;;;;;;10.64;100.00;100100.94;5069942;28;20544;-73
2022/12/24 09:14:07;;;;;;;19.35;11.30;;;;;;;10.67;100.00;100105.16;5070690;28;20037;-74
2022/12/24 09:16:33;;;;;;;11.98;8.18;;;;;;;10.71;100.00;100101.22;5069300;28;20024;-74
2022/12/24 09:18:58;;;;;;;18.77;9.82;;;;;;;10.64;100.00;100108.16;5070558;28;20036;-74
2022/12/24 09:21:24;;;;;;;18.80;11.45;;;;;;;10.51;100.00;100105.72;5069909;28;20458;-73
2022/12/24 09:23:49;;;;;;;12.65;8.23;;;;;;;10.53;100.00;100116.31;5070166;28;20112;-74
2022/12/24 09:26:21;;;;;;;17.90;9.07;;;;;;;10.54;100.00;100110.81;5069188;28;20043;-74
2022/12/24 09:28:47;;;;;;;14.27;9.07;;;;;;;10.50;100.00;100092.44;5070272;28;20067;-74
2022/12/24 09:31:13;;;;;;;13.30;9.10;;;;;;;10.56;100.00;100113.34;5070445;28;20060;-74
2022/12/24 09:33:40;;;;;;;15.63;7.85;;;;;;;10.66;100.00;100119.56;5069992;28;20037;-74
2022/12/24 09:36:06;;;;;;;16.27;8.15;;;;;;;10.62;100.00;100110.13;5070304;28;20382;-75
2022/12/24 09:38:33;;;;;;;13.88;7.75;;;;;;;10.77;100.00;100135.53;5067907;28;20044;-70
2022/12/24 09:41:00;;;;;;;13.07;7.45;;;;;;;10.81;100.00;100135.09;5070101;28;20025;-70
2022/12/24 09:43:31;;;;;;;17.50;9.52;;;;;;;10.86;100.00;100132.84;5068488;28;20028;-71
2022/12/24 09:46:21;;;;;;;15.80;8.10;;;;;;;10.91;100.00;100146.72;5068609;28;20028;-69
2022/12/24 09:48:54;;;;;;;12.88;7.53;;;;;;;10.94;100.00;100150.94;5068478;28;20028;-74
2022/12/24 09:51:33;;;;;;;16.52;7.53;;;;;;;10.85;100.00;100151.78;5068860;28;20423;-74
2022/12/24 09:54:04;;;;;;;12.40;7.35;;;;;;;10.86;100.00;100148.09;5067932;28;20032;-73
2022/12/24 09:56:43;;;;;;;17.23;11.23;;;;;;;10.89;100.00;100148.66;5068576;28;20044;-73
2022/12/24 09:59:25;;;;;;;14.50;7.57;;;;;;;10.99;100.00;100151.34;5067048;28;20041;-70
2022/12/24 10:01:53;;;;;;;13.27;8.25;;;;;;;10.63;100.00;100120.69;5068902;28;20040;-69
2022/12/24 10:04:24;;;;;;;13.27;7.72;;;;;;;10.94;100.00;100142.88;5069840;28;20037;-70
2022/12/24 10:07:07;;;;;;;21.05;12.63;;;;;;;11.04;100.00;100154.47;5067952;28;20369;-70
2022/12/24 10:09:42;;;;;;;16.10;10.43;;;;;;;11.14;99.45;100153.47;5067744;28;20461;-70
2022/12/24 10:12:16;;;;;;;10.32;6.32;;;;;;;11.33;97.69;100150.78;5068670;28;20033;-70
2022/12/24 10:14:45;;;;;;;8.93;6.25;;;;;;;11.25;98.36;100150.63;5069296;28;20394;-70
2022/12/24 10:17:37;;;;;;;11.10;6.18;;;;;;;11.31;97.65;100152.75;5068516;28;20059;-70
2022/12/24 10:20:30;;;;;;;11.40;6.18;;;;;;;11.35;96.87;100153.28;5069124;28;20032;-70
2022/12/24 10:23:09;;;;;;;10.45;7.05;;;;;;;11.29;96.93;100127.03;5068727;28;20028;-70
2022/12/24 10:25:40;;;;;;;11.07;6.40;;;;;;;11.47;96.51;100147.63;5066577;28;20408;-69
2022/12/24 10:28:14;;;;;;;11.57;6.72;;;;;;;11.42;96.42;100123.03;5068800;28;20067;-69
2022/12/24 10:30:41;;;;;;;16.83;8.35;;;;;;;11.57;96.29;100138.72;5067109;28;20051;-69
2022/12/24 10:33:18;;;;;;;13.18;8.23;;;;;;;11.48;95.80;100129.66;5069035;28;20037;-70
2022/12/24 10:35:49;;;;;;;13.48;7.10;;;;;;;11.65;95.68;100141.53;5067758;28;20667;-69
2022/12/24 10:38:15;;;;;;;13.88;7.43;;;;;;;11.55;96.50;100137.00;5067739;28;20024;-70
2022/12/24 10:40:45;;;;;;;9.52;6.38;;;;;;;11.63;95.23;100138.13;5068669;28;20044;-69
2022/12/24 10:43:14;;;;;;;11.27;7.57;;;;;;;11.61;96.03;100129.38;5069049;28;20120;-69
2022/12/24 10:45:45;;;;;;;10.88;6.22;;;;;;;11.71;94.91;100133.75;5068506;28;20051;-70
2022/12/24 10:48:21;;;;;;;10.88;5.13;;;;;;;11.86;93.43;100137.66;5067611;28;20095;-71
2022/12/24 10:51:06;;;;;;;12.60;5.28;;;;;;;11.81;92.36;100131.03;5067976;28;20068;-71
2022/12/24 10:53:41;;;;;;;8.73;4.70;;;;;;;11.93;91.90;100140.59;5068764;28;20081;-71
2022/12/24 10:56:09;;;;;;;9.50;5.30;;;;;;;11.96;92.73;100145.69;5067608;28;20070;-71
2022/12/24 10:58:36;;;;;;;9.82;4.53;;;;;;;12.12;91.18;100143.22;5069084;28;20040;-71
2022/12/24 11:01:02;;;;;;;7.38;3.67;;;;;;;12.12;90.76;100152.09;5066879;28;20596;-71
2022/12/24 11:03:35;;;;;;;6.47;3.70;;;;;;;12.28;88.97;100151.50;5068755;28;20037;-71
2022/12/24 11:06:19;;;;;;;7.07;3.88;;;;;;;12.25;89.52;100149.91;5068093;28;20131;-71
2022/12/24 11:08:45;;;;;;;;;;;;;;;12.37;87.97;100153.25;5069157;28;20525;-71
2022/12/24 11:11:14;;;;;;;11.90;5.13;;;;;;;12.37;88.42;100156.81;5067358;28;19908;-71
2022/12/24 11:13:44;;;;;;;10.35;4.82;;;;;;;12.16;88.76;100136.53;5066694;28;20055;-70
2022/12/24 11:16:29;;;;;;;7.93;3.78;;;;;;;12.09;90.24;100130.91;5068757;28;20044;-69
2022/12/24 11:18:57;;;;;;;8.60;4.63;;;;;;;12.32;90.16;100160.94;5069724;28;20066;-75
2022/12/24 11:21:31;;;;;;;8.90;3.97;;;;;;;12.30;88.77;100153.03;5068905;28;20520;-73
2022/12/24 11:24:07;;;;;;;8.00;3.90;;;;;;;12.45;87.23;100174.88;5073529;28;20016;-74
2022/12/24 11:26:33;;;;;;;9.25;4.28;;;;;;;12.37;88.30;100162.19;5073196;28;20064;-73
2022/12/24 11:29:13;;;;;;;8.02;3.83;;;;;;;12.29;88.50;100167.44;5073420;28;20161;-74
2022/12/24 11:31:40;;;;;;;4.82;3.05;;;;;;;12.46;87.11;100179.25;5071444;28;20033;-72